sensor_id;sensor_type;location;lat;lon;timestamp;pressure;altitude;pressure_sealevel;temperature;humidity
20696;BME280;10507;52.754;13.040;2024-01-15T00:00:51;98341.31;;;2.20;100.00
20696;BME280;10507;52.754;13.040;2024-01-15T00:03:19;98296.88;;;2.14;100.00
20696;BME280;10507;52.754;13.040;2024-01-15T00:05:46;98321.25;;;2.17;100.00
20696;BME280;10507;52.754;13.040;2024-01-15T00:08:13;98315.59;;;2.25;100.00
20696;BME280;10507;52.754;13.040;2024-01-15T00:10:39;98271.34;;;2.16;100.00
20696;BME280;10507;52.754;13.040;2024-01-15T00:13:06;98235.91;;;2.05;100.00
20696;BME280;10507;52.754;13.040;2024-01-15T00:15:33;98260.09;;;2.12;100.00
20696;BME280;10507;52.754;13.040;2024-01-15T00:18:00;98262.50;;;2.17;100.00
20696;BME280;10507;52.754;13.040;2024-01-15T00:20:28;98248.66;;;2.13;100.00
20696;BME280;10507;52.754;13.040;2024-01-15T00:22:54;98246.69;;;2.17;100.00
20696;BME280;10507;52.754;13.040;2024-01-15T00:25:21;98235.41;;;2.15;100.00
20696;BME280;10507;52.754;13.040;2024-01-15T00:27:48;98234.81;;;2.10;100.00
20696;BME280;10507;52.754;13.040;2024-01-15T00:30:14;98222.81;;;2.04;100.00
20696;BME280;10507;52.754;13.040;2024-01-15T00:32:41;98250.66;;;2.08;100.00
20696;BME280;10507;52.754;13.040;2024-01-15T00:35:08;98223.94;;;2.00;100.00
20696;BME280;10507;52.754;13.040;2024-01-15T00:37:36;98232.50;;;2.03;100.00
20696;BME280;10507;52.754;13.040;2024-01-15T00:40:04;98264.72;;;2.08;100.00
20696;BME280;10507;52.754;13.040;2024-01-15T00:42:31;98248.16;;;2.06;100.00
20696;BME280;10507;52.754;13.040;2024-01-15T00:44:57;98225.03;;;1.96;100.00
20696;BME280;10507;52.754;13.040;2024-01-15T00:47:24;98263.50;;;1.98;100.00
20696;BME280;10507;52.754;13.040;2024-01-15T00:49:52;98247.34;;;1.89;100.00
20696;BME280;10507;52.754;13.040;2024-01-15T00:52:19;98257.34;;;1.82;100.00
20696;BME280;10507;52.754;13.040;2024-01-15T00:54:47;98266.16;;;1.81;100.00
20696;BME280;10507;52.754;13.040;2024-01-15T00:57:14;98276.84;;;1.78;100.00
20696;BME280;10507;52.754;13.040;2024-01-15T00:59:40;98274.38;;;1.75;100.00
20696;BME280;10507;52.754;13.040;2024-01-15T01:02:07;98291.09;;;1.74;100.00
20696;BME280;10507;52.754;13.040;2024-01-15T01:04:34;98286.91;;;1.70;100.00
20696;BME280;10507;52.754;13.040;2024-01-15T01:07:00;98303.72;;;1.67;100.00
20696;BME280;10507;52.754;13.040;2024-01-15T01:09:27;98351.59;;;1.74;100.00
20696;BME280;10507;52.754;13.040;2024-01-15T01:11:56;98325.81;;;1.63;100.00
20696;BME280;10507;52.754;13.040;2024-01-15T01:14:23;98353.63;;;1.69;100.00
20696;BME280;10507;52.754;13.040;2024-01-15T01:16:50;98352.84;;;1.66;100.00
20696;BME280;10507;52.754;13.040;2024-01-15T01:19:16;98361.41;;;1.70;100.00
20696;BME280;10507;52.754;13.040;2024-01-15T01:21:43;98349.13;;;1.71;100.00
20696;BME280;10507;52.754;13.040;2024-01-15T01:24:09;98330.25;;;1.62;100.00
20696;BME280;10507;52.754;13.040;2024-01-15T01:26:36;98332.09;;;1.60;100.00
20696;BME280;10507;52.754;13.040;2024-01-15T01:29:04;98336.34;;;1.63;100.00
20696;BME280;10507;52.754;13.040;2024-01-15T01:31:31;98342.38;;;1.65;100.00
20696;BME280;10507;52.754;13.040;2024-01-15T01:33:57;98310.34;;;1.57;100.00
20696;BME280;10507;52.754;13.040;2024-01-15T01:36:24;98349.97;;;1.71;100.00
20696;BME280;10507;52.754;13.040;2024-01-15T01:38:51;98344.72;;;1.71;100.00
20696;BME280;10507;52.754;13.040;2024-01-15T01:41:17;98332.22;;;1.75;100.00
20696;BME280;10507;52.754;13.040;2024-01-15T01:43:44;98363.13;;;1.89;100.00
20696;BME280;10507;52.754;13.040;2024-01-15T01:46:12;98292.88;;;1.73;100.00
20696;BME280;10507;52.754;13.040;2024-01-15T01:48:39;98338.72;;;1.85;100.00
20696;BME280;10507;52.754;13.040;2024-01-15T01:51:05;98290.78;;;1.80;100.00
20696;BME280;10507;52.754;13.040;2024-01-15T01:53:34;98260.47;;;1.73;100.00
20696;BME280;10507;52.754;13.040;2024-01-15T01:56:02;98190.41;;;1.54;100.00
20696;BME280;10507;52.754;13.040;2024-01-15T01:58:29;98164.78;;;1.42;100.00
20696;BME280;10507;52.754;13.040;2024-01-15T02:00:57;98162.53;;;1.34;100.00
20696;BME280;10507;52.754;13.040;2024-01-15T02:03:25;98203.44;;;1.40;100.00
20696;BME280;10507;52.754;13.040;2024-01-15T02:05:53;98179.09;;;1.36;100.00
20696;BME280;10507;52.754;13.040;2024-01-15T02:08:21;98226.88;;;1.44;100.00
20696;BME280;10507;52.754;13.040;2024-01-15T02:10:48;98236.06;;;1.53;100.00
20696;BME280;10507;52.754;13.040;2024-01-15T02:13:14;98205.59;;;1.49;100.00
20696;BME280;10507;52.754;13.040;2024-01-15T02:15:41;98188.88;;;1.50;100.00
20696;BME280;10507;52.754;13.040;2024-01-15T02:18:08;98162.75;;;1.47;100.00
20696;BME280;10507;52.754;13.040;2024-01-15T02:20:36;98151.31;;;1.48;100.00
20696;BME280;10507;52.754;13.040;2024-01-15T02:23:08;98149.53;;;1.49;100.00
20696;BME280;10507;52.754;13.040;2024-01-15T02:25:36;98134.78;;;1.46;100.00
20696;BME280;10507;52.754;13.040;2024-01-15T02:28:04;98177.88;;;1.59;100.00
20696;BME280;10507;52.754;13.040;2024-01-15T02:30:31;98176.63;;;1.66;100.00
20696;BME280;10507;52.754;13.040;2024-01-15T02:32:58;98125.28;;;1.59;100.00
20696;BME280;10507;52.754;13.040;2024-01-15T02:35:24;98106.97;;;1.58;100.00
20696;BME280;10507;52.754;13.040;2024-01-15T02:37:51;98136.16;;;1.69;100.00
20696;BME280;10507;52.754;13.040;2024-01-15T02:40:19;98086.44;;;1.64;100.00
20696;BME280;10507;52.754;13.040;2024-01-15T02:42:46;98092.22;;;1.71;100.00
20696;BME280;10507;52.754;13.040;2024-01-15T02:45:12;98060.91;;;1.66;100.00
20696;BME280;10507;52.754;13.040;2024-01-15T02:47:39;98064.97;;;1.72;100.00
20696;BME280;10507;52.754;13.040;2024-01-15T02:50:06;98069.13;;;1.76;100.00
20696;BME280;10507;52.754;13.040;2024-01-15T02:52:33;98017.88;;;1.67;100.00
20696;BME280;10507;52.754;13.040;2024-01-15T02:55:00;98034.44;;;1.70;100.00
20696;BME280;10507;52.754;13.040;2024-01-15T02:57:28;98054.19;;;1.77;100.00
20696;BME280;10507;52.754;13.040;2024-01-15T02:59:54;98042.63;;;1.79;100.00
20696;BME280;10507;52.754;13.040;2024-01-15T03:02:21;98002.25;;;1.80;100.00
20696;BME280;10507;52.754;13.040;2024-01-15T03:04:48;97985.78;;;1.77;100.00
20696;BME280;10507;52.754;13.040;2024-01-15T03:07:14;97975.38;;;1.75;100.00
20696;BME280;10507;52.754;13.040;2024-01-15T03:09:41;97995.06;;;1.84;100.00
20696;BME280;10507;52.754;13.040;2024-01-15T03:12:08;97991.47;;;1.85;100.00
20696;BME280;10507;52.754;13.040;2024-01-15T03:14:36;97920.78;;;1.79;100.00
20696;BME280;10507;52.754;13.040;2024-01-15T03:17:03;97922.31;;;1.83;100.00
20696;BME280;10507;52.754;13.040;2024-01-15T03:19:29;97881.94;;;1.84;100.00
20696;BME280;10507;52.754;13.040;2024-01-15T03:21:56;97885.50;;;1.83;100.00
20696;BME280;10507;52.754;13.040;2024-01-15T03:24:23;97918.38;;;1.90;100.00
20696;BME280;10507;52.754;13.040;2024-01-15T03:26:50;97868.09;;;1.80;99.57
20696;BME280;10507;52.754;13.040;2024-01-15T03:29:16;97835.31;;;1.72;99.69
20696;BME280;10507;52.754;13.040;2024-01-15T03:31:44;97886.25;;;1.85;99.64
20696;BME280;10507;52.754;13.040;2024-01-15T03:34:11;97887.09;;;1.85;99.78
20696;BME280;10507;52.754;13.040;2024-01-15T03:36:37;97858.34;;;1.82;99.61
20696;BME280;10507;52.754;13.040;2024-01-15T03:39:04;97861.72;;;1.84;99.27
20696;BME280;10507;52.754;13.040;2024-01-15T03:41:31;97829.50;;;1.81;99.11
20696;BME280;10507;52.754;13.040;2024-01-15T03:43:57;97856.19;;;1.89;98.90
20696;BME280;10507;52.754;13.040;2024-01-15T03:46:24;97863.72;;;1.95;98.72
20696;BME280;10507;52.754;13.040;2024-01-15T03:48:52;97870.47;;;1.99;98.90
20696;BME280;10507;52.754;13.040;2024-01-15T03:51:19;97838.06;;;1.99;98.52
20696;BME280;10507;52.754;13.040;2024-01-15T03:53:46;97827.44;;;2.00;98.56
20696;BME280;10507;52.754;13.040;2024-01-15T03:56:14;97843.88;;;2.04;98.24
20696;BME280;10507;52.754;13.040;2024-01-15T03:58:40;97803.94;;;1.97;98.34
20696;BME280;10507;52.754;13.040;2024-01-15T04:01:08;97849.81;;;2.07;98.40
20696;BME280;10507;52.754;13.040;2024-01-15T04:03:35;97818.31;;;2.06;98.11
20696;BME280;10507;52.754;13.040;2024-01-15T04:06:03;97808.66;;;2.06;98.08
20696;BME280;10507;52.754;13.040;2024-01-15T04:08:30;97795.59;;;2.05;97.62
20696;BME280;10507;52.754;13.040;2024-01-15T04:10:57;97799.16;;;2.04;97.84
20696;BME280;10507;52.754;13.040;2024-01-15T04:13:23;97793.25;;;2.00;97.79
20696;BME280;10507;52.754;13.040;2024-01-15T04:15:50;97800.03;;;2.04;97.57
20696;BME280;10507;52.754;13.040;2024-01-15T04:18:16;97819.94;;;2.08;97.78
20696;BME280;10507;52.754;13.040;2024-01-15T04:20:43;97783.34;;;2.04;97.68
20696;BME280;10507;52.754;13.040;2024-01-15T04:23:11;97792.13;;;2.04;97.73
20696;BME280;10507;52.754;13.040;2024-01-15T04:25:38;97764.09;;;2.03;97.39
20696;BME280;10507;52.754;13.040;2024-01-15T04:28:07;97781.47;;;2.06;97.48
20696;BME280;10507;52.754;13.040;2024-01-15T04:30:34;97782.81;;;2.13;97.30
20696;BME280;10507;52.754;13.040;2024-01-15T04:33:01;97738.53;;;2.05;97.08
20696;BME280;10507;52.754;13.040;2024-01-15T04:35:30;97756.69;;;2.10;96.90
20696;BME280;10507;52.754;13.040;2024-01-15T04:37:56;97745.69;;;2.03;97.72
20696;BME280;10507;52.754;13.040;2024-01-15T04:40:24;97804.72;;;2.14;97.40
20696;BME280;10507;52.754;13.040;2024-01-15T04:42:53;97755.09;;;2.07;97.39
20696;BME280;10507;52.754;13.040;2024-01-15T04:45:19;97806.59;;;2.12;97.74
20696;BME280;10507;52.754;13.040;2024-01-15T04:47:48;97808.19;;;2.14;97.61
20696;BME280;10507;52.754;13.040;2024-01-15T04:50:14;97815.59;;;2.07;97.77
20696;BME280;10507;52.754;13.040;2024-01-15T04:52:41;97825.28;;;2.07;97.66
20696;BME280;10507;52.754;13.040;2024-01-15T04:55:08;97837.34;;;2.11;98.01
20696;BME280;10507;52.754;13.040;2024-01-15T04:57:36;97825.47;;;2.04;98.33
20696;BME280;10507;52.754;13.040;2024-01-15T05:00:03;97858.94;;;2.02;98.48
20696;BME280;10507;52.754;13.040;2024-01-15T05:02:30;97848.88;;;1.94;98.64
20696;BME280;10507;52.754;13.040;2024-01-15T05:04:57;97843.88;;;1.75;99.57
20696;BME280;10507;52.754;13.040;2024-01-15T05:07:23;97917.09;;;1.67;100.00
20696;BME280;10507;52.754;13.040;2024-01-15T05:09:50;97993.19;;;1.70;100.00
20696;BME280;10507;52.754;13.040;2024-01-15T05:12:16;98015.75;;;1.74;100.00
20696;BME280;10507;52.754;13.040;2024-01-15T05:14:44;98015.75;;;1.74;100.00
20696;BME280;10507;52.754;13.040;2024-01-15T05:17:11;98036.38;;;1.82;100.00
20696;BME280;10507;52.754;13.040;2024-01-15T05:19:38;98046.78;;;1.83;100.00
20696;BME280;10507;52.754;13.040;2024-01-15T05:22:04;98051.72;;;1.90;100.00
20696;BME280;10507;52.754;13.040;2024-01-15T05:24:33;98027.19;;;1.89;100.00
20696;BME280;10507;52.754;13.040;2024-01-15T05:27:00;97987.16;;;1.84;100.00
20696;BME280;10507;52.754;13.040;2024-01-15T05:29:27;97996.47;;;1.90;100.00
20696;BME280;10507;52.754;13.040;2024-01-15T05:31:55;98001.38;;;1.96;100.00
20696;BME280;10507;52.754;13.040;2024-01-15T05:34:21;97972.25;;;1.99;100.00
20696;BME280;10507;52.754;13.040;2024-01-15T05:36:48;97967.81;;;1.99;100.00
20696;BME280;10507;52.754;13.040;2024-01-15T05:39:14;97974.44;;;2.06;100.00
20696;BME280;10507;52.754;13.040;2024-01-15T05:41:41;97948.13;;;2.06;100.00
20696;BME280;10507;52.754;13.040;2024-01-15T05:44:08;97919.72;;;1.97;100.00
20696;BME280;10507;52.754;13.040;2024-01-15T05:46:35;97914.28;;;2.00;100.00
20696;BME280;10507;52.754;13.040;2024-01-15T05:49:03;97947.19;;;2.07;99.88
20696;BME280;10507;52.754;13.040;2024-01-15T05:51:31;97930.63;;;2.05;99.84
20696;BME280;10507;52.754;13.040;2024-01-15T05:53:58;97918.31;;;2.06;99.71
20696;BME280;10507;52.754;13.040;2024-01-15T05:56:24;97903.00;;;1.98;99.91
20696;BME280;10507;52.754;13.040;2024-01-15T05:58:51;97890.88;;;1.96;99.60
20696;BME280;10507;52.754;13.040;2024-01-15T06:01:18;97884.38;;;2.01;99.62
20696;BME280;10507;52.754;13.040;2024-01-15T06:03:44;97890.59;;;2.00;99.44
20696;BME280;10507;52.754;13.040;2024-01-15T06:06:12;97871.22;;;2.01;99.41
20696;BME280;10507;52.754;13.040;2024-01-15T06:08:39;97883.53;;;2.01;99.52
20696;BME280;10507;52.754;13.040;2024-01-15T06:11:06;97866.72;;;2.03;99.25
20696;BME280;10507;52.754;13.040;2024-01-15T06:13:33;97871.06;;;2.04;99.16
20696;BME280;10507;52.754;13.040;2024-01-15T06:16:00;97856.41;;;2.00;99.11
20696;BME280;10507;52.754;13.040;2024-01-15T06:18:26;97868.31;;;2.06;99.10
20696;BME280;10507;52.754;13.040;2024-01-15T06:20:53;97873.59;;;2.06;99.36
20696;BME280;10507;52.754;13.040;2024-01-15T06:23:21;97884.59;;;2.13;99.12
20696;BME280;10507;52.754;13.040;2024-01-15T06:25:48;97874.19;;;2.11;99.37
20696;BME280;10507;52.754;13.040;2024-01-15T06:28:14;97871.63;;;2.10;99.17
20696;BME280;10507;52.754;13.040;2024-01-15T06:30:41;97901.59;;;2.07;99.67
20696;BME280;10507;52.754;13.040;2024-01-15T06:33:07;97921.72;;;2.08;99.46
20696;BME280;10507;52.754;13.040;2024-01-15T06:35:34;97922.56;;;2.08;99.72
20696;BME280;10507;52.754;13.040;2024-01-15T06:38:01;97911.47;;;2.03;99.96
20696;BME280;10507;52.754;13.040;2024-01-15T06:40:29;97911.81;;;1.97;100.00
20696;BME280;10507;52.754;13.040;2024-01-15T06:42:56;97970.31;;;2.02;100.00
20696;BME280;10507;52.754;13.040;2024-01-15T06:45:22;97942.25;;;1.87;100.00
20696;BME280;10507;52.754;13.040;2024-01-15T06:47:49;97968.38;;;1.90;100.00
20696;BME280;10507;52.754;13.040;2024-01-15T06:50:15;97987.72;;;1.89;100.00
20696;BME280;10507;52.754;13.040;2024-01-15T06:52:42;97988.53;;;1.75;100.00
20696;BME280;10507;52.754;13.040;2024-01-15T06:55:09;98029.59;;;1.62;100.00
20696;BME280;10507;52.754;13.040;2024-01-15T06:57:37;98060.13;;;1.49;100.00
20696;BME280;10507;52.754;13.040;2024-01-15T07:00:04;98106.69;;;1.47;100.00
20696;BME280;10507;52.754;13.040;2024-01-15T07:02:33;98132.16;;;1.46;100.00
20696;BME280;10507;52.754;13.040;2024-01-15T07:04:59;98153.94;;;1.48;100.00
20696;BME280;10507;52.754;13.040;2024-01-15T07:07:26;98181.09;;;1.49;100.00
20696;BME280;10507;52.754;13.040;2024-01-15T07:09:55;98179.00;;;1.38;100.00
20696;BME280;10507;52.754;13.040;2024-01-15T07:12:21;98208.69;;;1.40;100.00
20696;BME280;10507;52.754;13.040;2024-01-15T07:14:49;98210.38;;;1.41;100.00
20696;BME280;10507;52.754;13.040;2024-01-15T07:17:16;98243.56;;;1.43;100.00
20696;BME280;10507;52.754;13.040;2024-01-15T07:19:43;98266.13;;;1.48;100.00
20696;BME280;10507;52.754;13.040;2024-01-15T07:22:09;98245.44;;;1.41;100.00
20696;BME280;10507;52.754;13.040;2024-01-15T07:24:36;98236.84;;;1.38;100.00
20696;BME280;10507;52.754;13.040;2024-01-15T07:27:03;98252.44;;;1.41;100.00
20696;BME280;10507;52.754;13.040;2024-01-15T07:29:30;98252.16;;;1.47;100.00
20696;BME280;10507;52.754;13.040;2024-01-15T07:31:59;98249.13;;;1.55;100.00
20696;BME280;10507;52.754;13.040;2024-01-15T07:34:26;98256.44;;;1.65;100.00
20696;BME280;10507;52.754;13.040;2024-01-15T07:36:53;98237.72;;;1.72;100.00
20696;BME280;10507;52.754;13.040;2024-01-15T07:39:20;98205.97;;;1.75;100.00
20696;BME280;10507;52.754;13.040;2024-01-15T07:41:48;98206.25;;;1.86;100.00
20696;BME280;10507;52.754;13.040;2024-01-15T07:44:14;98193.97;;;1.86;100.00
20696;BME280;10507;52.754;13.040;2024-01-15T07:46:44;98142.09;;;1.73;100.00
20696;BME280;10507;52.754;13.040;2024-01-15T07:49:12;98142.09;;;1.73;100.00
20696;BME280;10507;52.754;13.040;2024-01-15T07:51:38;98141.94;;;1.76;100.00
20696;BME280;10507;52.754;13.040;2024-01-15T07:54:06;98156.50;;;1.81;100.00
20696;BME280;10507;52.754;13.040;2024-01-15T07:56:33;98147.78;;;1.81;100.00
20696;BME280;10507;52.754;13.040;2024-01-15T07:59:00;98158.50;;;1.94;100.00
20696;BME280;10507;52.754;13.040;2024-01-15T08:01:26;98138.88;;;1.99;100.00
20696;BME280;10507;52.754;13.040;2024-01-15T08:03:53;98102.41;;;1.93;100.00
20696;BME280;10507;52.754;13.040;2024-01-15T08:06:21;98091.94;;;1.92;100.00
20696;BME280;10507;52.754;13.040;2024-01-15T08:08:48;98072.69;;;1.91;100.00
20696;BME280;10507;52.754;13.040;2024-01-15T08:11:15;98070.72;;;1.95;100.00
20696;BME280;10507;52.754;13.040;2024-01-15T08:13:41;98047.22;;;1.92;100.00
20696;BME280;10507;52.754;13.040;2024-01-15T08:16:08;98048.81;;;1.94;100.00
20696;BME280;10507;52.754;13.040;2024-01-15T08:18:35;98051.25;;;1.97;100.00
20696;BME280;10507;52.754;13.040;2024-01-15T08:21:01;98045.84;;;2.00;100.00
20696;BME280;10507;52.754;13.040;2024-01-15T08:23:29;98051.03;;;2.02;100.00
20696;BME280;10507;52.754;13.040;2024-01-15T08:25:56;98039.06;;;1.96;100.00
20696;BME280;10507;52.754;13.040;2024-01-15T08:28:23;98019.22;;;1.91;100.00
20696;BME280;10507;52.754;13.040;2024-01-15T08:30:50;98055.53;;;2.00;100.00
20696;BME280;10507;52.754;13.040;2024-01-15T08:33:16;98050.44;;;1.97;100.00
20696;BME280;10507;52.754;13.040;2024-01-15T08:35:43;98046.63;;;1.86;100.00
20696;BME280;10507;52.754;13.040;2024-01-15T08:38:10;98080.16;;;1.83;100.00
20696;BME280;10507;52.754;13.040;2024-01-15T08:40:38;98133.97;;;1.93;100.00
20696;BME280;10507;52.754;13.040;2024-01-15T08:43:04;98098.38;;;1.86;100.00
20696;BME280;10507;52.754;13.040;2024-01-15T08:45:32;98163.25;;;1.87;100.00
20696;BME280;10507;52.754;13.040;2024-01-15T08:47:58;98161.00;;;1.79;100.00
20696;BME280;10507;52.754;13.040;2024-01-15T08:50:26;98191.16;;;1.90;100.00
20696;BME280;10507;52.754;13.040;2024-01-15T08:52:53;98171.13;;;1.87;100.00
20696;BME280;10507;52.754;13.040;2024-01-15T08:55:19;98231.59;;;2.04;100.00
20696;BME280;10507;52.754;13.040;2024-01-15T08:57:49;98186.16;;;2.01;100.00
20696;BME280;10507;52.754;13.040;2024-01-15T09:00:16;98162.22;;;1.90;100.00
20696;BME280;10507;52.754;13.040;2024-01-15T09:02:44;98155.34;;;1.87;100.00
20696;BME280;10507;52.754;13.040;2024-01-15T09:05:10;98174.53;;;1.89;100.00
20696;BME280;10507;52.754;13.040;2024-01-15T09:07:37;98180.69;;;1.88;100.00
20696;BME280;10507;52.754;13.040;2024-01-15T09:10:04;98184.09;;;1.90;100.00
20696;BME280;10507;52.754;13.040;2024-01-15T09:12:32;98181.31;;;1.93;100.00
20696;BME280;10507;52.754;13.040;2024-01-15T09:15:00;98190.25;;;2.06;100.00
20696;BME280;10507;52.754;13.040;2024-01-15T09:17:29;98148.28;;;2.03;100.00
20696;BME280;10507;52.754;13.040;2024-01-15T09:19:56;98184.28;;;2.19;100.00
20696;BME280;10507;52.754;13.040;2024-01-15T09:22:22;98170.78;;;2.25;100.00
20696;BME280;10507;52.754;13.040;2024-01-15T09:24:49;98141.06;;;2.23;100.00
20696;BME280;10507;52.754;13.040;2024-01-15T09:27:16;98138.09;;;2.29;100.00
20696;BME280;10507;52.754;13.040;2024-01-15T09:29:42;98100.09;;;2.33;100.00
20696;BME280;10507;52.754;13.040;2024-01-15T09:32:12;98056.28;;;2.32;99.34
20696;BME280;10507;52.754;13.040;2024-01-15T09:34:39;98027.34;;;2.32;99.16
20696;BME280;10507;52.754;13.040;2024-01-15T09:37:06;98030.72;;;2.34;99.19
20696;BME280;10507;52.754;13.040;2024-01-15T09:39:33;98008.91;;;2.32;98.76
20696;BME280;10507;52.754;13.040;2024-01-15T09:42:00;98033.84;;;2.41;98.45
20696;BME280;10507;52.754;13.040;2024-01-15T09:44:28;98040.44;;;2.48;98.59
20696;BME280;10507;52.754;13.040;2024-01-15T09:46:55;98111.72;;;2.75;98.42
20696;BME280;10507;52.754;13.040;2024-01-15T09:49:23;98110.25;;;2.85;97.76
20696;BME280;10507;52.754;13.040;2024-01-15T09:51:51;98095.06;;;2.89;97.61
20696;BME280;10507;52.754;13.040;2024-01-15T09:54:18;98036.34;;;2.87;97.07
20696;BME280;10507;52.754;13.040;2024-01-15T09:56:45;97980.75;;;2.77;96.94
20696;BME280;10507;52.754;13.040;2024-01-15T09:59:13;97991.09;;;2.80;97.01
20696;BME280;10507;52.754;13.040;2024-01-15T10:01:41;97963.13;;;2.78;96.75
20696;BME280;10507;52.754;13.040;2024-01-15T10:04:09;97966.94;;;2.74;96.61
20696;BME280;10507;52.754;13.040;2024-01-15T10:06:38;97981.28;;;2.82;96.09
20696;BME280;10507;52.754;13.040;2024-01-15T10:09:05;97955.34;;;2.76;96.50
20696;BME280;10507;52.754;13.040;2024-01-15T10:11:33;97933.69;;;2.71;96.19
20696;BME280;10507;52.754;13.040;2024-01-15T10:14:00;97967.84;;;2.73;95.84
20696;BME280;10507;52.754;13.040;2024-01-15T10:16:27;97926.28;;;2.63;96.25
20696;BME280;10507;52.754;13.040;2024-01-15T10:18:54;97933.50;;;2.60;96.12
20696;BME280;10507;52.754;13.040;2024-01-15T10:21:21;97934.06;;;2.50;95.95
20696;BME280;10507;52.754;13.040;2024-01-15T10:23:49;97933.91;;;2.54;96.14
20696;BME280;10507;52.754;13.040;2024-01-15T10:26:15;97972.53;;;2.53;96.58
20696;BME280;10507;52.754;13.040;2024-01-15T10:28:42;97978.94;;;2.49;96.93
20696;BME280;10507;52.754;13.040;2024-01-15T10:31:09;97997.47;;;2.47;96.79
20696;BME280;10507;52.754;13.040;2024-01-15T10:33:36;98000.03;;;2.49;96.75
20696;BME280;10507;52.754;13.040;2024-01-15T10:36:09;98003.56;;;2.48;97.26
20696;BME280;10507;52.754;13.040;2024-01-15T10:38:36;98039.81;;;2.59;97.31
20696;BME280;10507;52.754;13.040;2024-01-15T10:41:04;98037.47;;;2.68;96.76
20696;BME280;10507;52.754;13.040;2024-01-15T10:43:31;98051.31;;;2.72;97.02
20696;BME280;10507;52.754;13.040;2024-01-15T10:45:57;98015.19;;;2.74;96.37
20696;BME280;10507;52.754;13.040;2024-01-15T10:48:24;97971.72;;;2.67;96.15
20696;BME280;10507;52.754;13.040;2024-01-15T10:50:53;97992.59;;;2.70;96.03
20696;BME280;10507;52.754;13.040;2024-01-15T10:53:20;98010.84;;;2.73;96.46
20696;BME280;10507;52.754;13.040;2024-01-15T10:55:48;97993.28;;;2.74;96.23
20696;BME280;10507;52.754;13.040;2024-01-15T10:58:16;97976.72;;;2.72;96.27
20696;BME280;10507;52.754;13.040;2024-01-15T11:00:44;97955.16;;;2.65;96.06
20696;BME280;10507;52.754;13.040;2024-01-15T11:03:11;98008.03;;;2.76;96.11
20696;BME280;10507;52.754;13.040;2024-01-15T11:05:38;97988.72;;;2.76;96.28
20696;BME280;10507;52.754;13.040;2024-01-15T11:08:05;97997.31;;;2.79;95.65
20696;BME280;10507;52.754;13.040;2024-01-15T11:10:40;98013.84;;;2.96;95.13
20696;BME280;10507;52.754;13.040;2024-01-15T11:13:13;97986.41;;;2.85;95.39
20696;BME280;10507;52.754;13.040;2024-01-15T11:16:06;97969.34;;;2.91;94.81
20696;BME280;10507;52.754;13.040;2024-01-15T11:18:35;97972.44;;;2.98;94.80
20696;BME280;10507;52.754;13.040;2024-01-15T11:21:21;97956.91;;;2.93;94.48
20696;BME280;10507;52.754;13.040;2024-01-15T11:23:52;97970.38;;;2.88;95.12
20696;BME280;10507;52.754;13.040;2024-01-15T11:26:35;98013.97;;;2.94;95.27
20696;BME280;10507;52.754;13.040;2024-01-15T11:29:04;98005.69;;;2.86;95.35
20696;BME280;10507;52.754;13.040;2024-01-15T11:34:59;98063.75;;;2.99;95.95
20696;BME280;10507;52.754;13.040;2024-01-15T11:37:28;98019.13;;;2.81;95.59
20696;BME280;10507;52.754;13.040;2024-01-15T11:39:59;98030.59;;;2.66;96.31
20696;BME280;10507;52.754;13.040;2024-01-15T11:42:26;98114.88;;;2.66;97.25
20696;BME280;10507;52.754;13.040;2024-01-15T11:44:53;98136.72;;;2.68;97.35
20696;BME280;10507;52.754;13.040;2024-01-15T11:47:40;98157.75;;;2.54;98.08
20696;BME280;10507;52.754;13.040;2024-01-15T11:50:12;98168.81;;;2.44;98.38
20696;BME280;10507;52.754;13.040;2024-01-15T11:52:39;98196.34;;;2.39;99.32
20696;BME280;10507;52.754;13.040;2024-01-15T11:55:19;98209.19;;;2.29;99.86
20696;BME280;10507;52.754;13.040;2024-01-15T11:57:50;98227.00;;;2.24;100.00
20696;BME280;10507;52.754;13.040;2024-01-15T12:00:20;98252.81;;;2.33;100.00
20696;BME280;10507;52.754;13.040;2024-01-15T12:02:48;98242.97;;;2.21;100.00
20696;BME280;10507;52.754;13.040;2024-01-15T12:05:19;98231.59;;;2.04;100.00
20696;BME280;10507;52.754;13.040;2024-01-15T12:07:48;98274.59;;;2.03;100.00
20696;BME280;10507;52.754;13.040;2024-01-15T12:10:17;98283.59;;;1.99;100.00
20696;BME280;10507;52.754;13.040;2024-01-15T12:12:55;98326.84;;;2.11;100.00
20696;BME280;10507;52.754;13.040;2024-01-15T12:15:24;98351.84;;;2.20;100.00
20696;BME280;10507;52.754;13.040;2024-01-15T12:17:51;98337.13;;;2.16;100.00
20696;BME280;10507;52.754;13.040;2024-01-15T12:20:19;98330.50;;;2.08;100.00
20696;BME280;10507;52.754;13.040;2024-01-15T12:22:46;98339.31;;;2.07;100.00
20696;BME280;10507;52.754;13.040;2024-01-15T12:25:12;98331.25;;;2.11;100.00
20696;BME280;10507;52.754;13.040;2024-01-15T12:27:39;98340.16;;;2.08;100.00
20696;BME280;10507;52.754;13.040;2024-01-15T12:30:07;98351.97;;;2.17;100.00
20696;BME280;10507;52.754;13.040;2024-01-15T12:32:36;98375.97;;;2.28;100.00
20696;BME280;10507;52.754;13.040;2024-01-15T12:35:03;98357.78;;;2.23;100.00
20696;BME280;10507;52.754;13.040;2024-01-15T12:37:32;98366.63;;;2.22;100.00
20696;BME280;10507;52.754;13.040;2024-01-15T12:39:59;98386.34;;;2.31;100.00
20696;BME280;10507;52.754;13.040;2024-01-15T12:42:25;98394.66;;;2.39;100.00
20696;BME280;10507;52.754;13.040;2024-01-15T12:44:55;98389.09;;;2.45;100.00
20696;BME280;10507;52.754;13.040;2024-01-15T12:47:22;98378.72;;;2.42;100.00
20696;BME280;10507;52.754;13.040;2024-01-15T12:49:51;98377.84;;;2.42;100.00
20696;BME280;10507;52.754;13.040;2024-01-15T12:52:19;98356.13;;;2.38;100.00
20696;BME280;10507;52.754;13.040;2024-01-15T12:54:48;98340.72;;;2.31;100.00
20696;BME280;10507;52.754;13.040;2024-01-15T12:57:15;98344.22;;;2.31;100.00